sensor_id;sensor_type;location;lat;lon;timestamp;P1;durP1;ratioP1;P2;durP2;ratioP2
70545;SDS011;58098;51.680;5.134;2023-05-10T00:00:26;61.38;;;23.70;;
70545;SDS011;58098;51.680;5.134;2023-05-10T00:02:51;60.47;;;23.13;;
70545;SDS011;58098;51.680;5.134;2023-05-10T00:05:17;58.53;;;22.73;;
70545;SDS011;58098;51.680;5.134;2023-05-10T00:07:42;55.33;;;22.37;;
70545;SDS011;58098;51.680;5.134;2023-05-10T00:10:09;62.22;;;23.60;;
70545;SDS011;58098;51.680;5.134;2023-05-10T00:12:35;63.90;;;24.90;;
70545;SDS011;58098;51.680;5.134;2023-05-10T00:15:00;54.80;;;20.23;;
70545;SDS011;58098;51.680;5.134;2023-05-10T00:17:26;59.23;;;23.60;;
70545;SDS011;58098;51.680;5.134;2023-05-10T00:19:51;59.07;;;22.07;;
70545;SDS011;58098;51.680;5.134;2023-05-10T00:22:16;66.73;;;23.60;;
70545;SDS011;58098;51.680;5.134;2023-05-10T00:24:42;65.60;;;23.97;;
70545;SDS011;58098;51.680;5.134;2023-05-10T00:27:07;65.37;;;24.77;;
70545;SDS011;58098;51.680;5.134;2023-05-10T00:29:32;68.95;;;23.63;;
70545;SDS011;58098;51.680;5.134;2023-05-10T00:31:58;69.90;;;23.23;;
70545;SDS011;58098;51.680;5.134;2023-05-10T00:34:24;64.70;;;23.58;;
70545;SDS011;58098;51.680;5.134;2023-05-10T00:36:49;69.07;;;25.30;;
70545;SDS011;58098;51.680;5.134;2023-05-10T00:39:15;71.40;;;24.37;;
70545;SDS011;58098;51.680;5.134;2023-05-10T00:41:40;71.50;;;26.10;;
70545;SDS011;58098;51.680;5.134;2023-05-10T00:44:05;71.47;;;24.43;;
70545;SDS011;58098;51.680;5.134;2023-05-10T00:46:31;74.57;;;24.97;;
70545;SDS011;58098;51.680;5.134;2023-05-10T00:48:57;75.35;;;25.67;;
70545;SDS011;58098;51.680;5.134;2023-05-10T00:51:22;77.63;;;25.17;;
70545;SDS011;58098;51.680;5.134;2023-05-10T00:53:48;75.83;;;24.97;;
70545;SDS011;58098;51.680;5.134;2023-05-10T00:56:14;76.82;;;25.98;;
70545;SDS011;58098;51.680;5.134;2023-05-10T00:58:40;77.75;;;25.10;;
70545;SDS011;58098;51.680;5.134;2023-05-10T01:01:06;79.40;;;25.43;;
70545;SDS011;58098;51.680;5.134;2023-05-10T01:03:32;75.70;;;23.27;;
70545;SDS011;58098;51.680;5.134;2023-05-10T01:05:58;66.93;;;22.77;;
70545;SDS011;58098;51.680;5.134;2023-05-10T01:08:23;73.07;;;22.53;;
70545;SDS011;58098;51.680;5.134;2023-05-10T01:10:49;66.83;;;22.50;;
70545;SDS011;58098;51.680;5.134;2023-05-10T01:13:19;74.20;;;22.70;;
70545;SDS011;58098;51.680;5.134;2023-05-10T01:15:53;81.82;;;23.30;;
70545;SDS011;58098;51.680;5.134;2023-05-10T01:18:19;70.90;;;21.83;;
70545;SDS011;58098;51.680;5.134;2023-05-10T01:20:47;63.83;;;21.45;;
70545;SDS011;58098;51.680;5.134;2023-05-10T01:28:39;64.38;;;21.08;;
70545;SDS011;58098;51.680;5.134;2023-05-10T01:34:05;71.20;;;21.63;;
70545;SDS011;58098;51.680;5.134;2023-05-10T01:36:45;62.53;;;20.88;;
70545;SDS011;58098;51.680;5.134;2023-05-10T01:44:26;69.28;;;20.95;;
70545;SDS011;58098;51.680;5.134;2023-05-10T01:46:58;68.17;;;20.83;;
70545;SDS011;58098;51.680;5.134;2023-05-10T01:49:31;75.82;;;22.58;;
70545;SDS011;58098;51.680;5.134;2023-05-10T01:52:00;77.93;;;23.58;;
70545;SDS011;58098;51.680;5.134;2023-05-10T01:54:38;65.32;;;20.98;;
70545;SDS011;58098;51.680;5.134;2023-05-10T01:57:07;72.93;;;25.00;;
70545;SDS011;58098;51.680;5.134;2023-05-10T01:59:37;72.30;;;24.07;;
70545;SDS011;58098;51.680;5.134;2023-05-10T02:02:05;76.95;;;24.67;;
70545;SDS011;58098;51.680;5.134;2023-05-10T02:04:32;61.15;;;22.73;;
70545;SDS011;58098;51.680;5.134;2023-05-10T02:07:02;77.43;;;26.70;;
70545;SDS011;58098;51.680;5.134;2023-05-10T02:09:28;89.78;;;28.55;;
70545;SDS011;58098;51.680;5.134;2023-05-10T02:11:57;82.80;;;28.83;;
70545;SDS011;58098;51.680;5.134;2023-05-10T02:14:27;88.40;;;29.55;;
70545;SDS011;58098;51.680;5.134;2023-05-10T02:16:55;98.03;;;31.90;;
70545;SDS011;58098;51.680;5.134;2023-05-10T02:19:23;89.93;;;30.88;;
70545;SDS011;58098;51.680;5.134;2023-05-10T02:21:51;103.68;;;32.92;;
70545;SDS011;58098;51.680;5.134;2023-05-10T02:24:16;99.33;;;33.07;;
70545;SDS011;58098;51.680;5.134;2023-05-10T02:26:43;110.82;;;34.67;;
70545;SDS011;58098;51.680;5.134;2023-05-10T02:29:10;99.78;;;33.92;;
70545;SDS011;58098;51.680;5.134;2023-05-10T02:31:37;109.35;;;36.33;;
70545;SDS011;58098;51.680;5.134;2023-05-10T02:34:03;106.47;;;35.33;;
70545;SDS011;58098;51.680;5.134;2023-05-10T02:36:31;115.75;;;36.67;;
70545;SDS011;58098;51.680;5.134;2023-05-10T02:38:57;112.07;;;36.65;;
70545;SDS011;58098;51.680;5.134;2023-05-10T02:41:24;114.10;;;37.03;;
70545;SDS011;58098;51.680;5.134;2023-05-10T02:43:51;126.03;;;39.47;;
70545;SDS011;58098;51.680;5.134;2023-05-10T02:46:22;113.60;;;37.97;;
70545;SDS011;58098;51.680;5.134;2023-05-10T02:48:48;116.78;;;37.85;;
70545;SDS011;58098;51.680;5.134;2023-05-10T02:51:13;122.13;;;38.87;;
70545;SDS011;58098;51.680;5.134;2023-05-10T02:53:43;125.70;;;39.92;;
70545;SDS011;58098;51.680;5.134;2023-05-10T02:56:14;124.22;;;39.88;;
70545;SDS011;58098;51.680;5.134;2023-05-10T02:58:48;120.88;;;38.15;;
70545;SDS011;58098;51.680;5.134;2023-05-10T03:01:13;124.83;;;39.77;;
70545;SDS011;58098;51.680;5.134;2023-05-10T03:03:39;123.10;;;40.10;;
70545;SDS011;58098;51.680;5.134;2023-05-10T03:06:04;128.83;;;40.80;;
70545;SDS011;58098;51.680;5.134;2023-05-10T03:08:29;124.87;;;40.53;;
70545;SDS011;58098;51.680;5.134;2023-05-10T03:11:00;119.43;;;40.10;;
70545;SDS011;58098;51.680;5.134;2023-05-10T03:16:35;119.53;;;37.27;;
70545;SDS011;58098;51.680;5.134;2023-05-10T03:21:43;125.53;;;39.88;;
70545;SDS011;58098;51.680;5.134;2023-05-10T03:24:14;111.88;;;36.20;;
70545;SDS011;58098;51.680;5.134;2023-05-10T03:26:41;116.13;;;37.58;;
70545;SDS011;58098;51.680;5.134;2023-05-10T03:29:10;106.97;;;36.37;;
70545;SDS011;58098;51.680;5.134;2023-05-10T03:31:36;107.00;;;36.20;;
70545;SDS011;58098;51.680;5.134;2023-05-10T03:34:03;114.47;;;36.33;;
70545;SDS011;58098;51.680;5.134;2023-05-10T03:36:28;105.47;;;35.40;;
70545;SDS011;58098;51.680;5.134;2023-05-10T03:38:54;109.77;;;34.43;;
70545;SDS011;58098;51.680;5.134;2023-05-10T03:41:19;104.50;;;32.95;;
70545;SDS011;58098;51.680;5.134;2023-05-10T03:43:45;99.30;;;33.03;;
70545;SDS011;58098;51.680;5.134;2023-05-10T03:46:10;111.95;;;33.85;;
70545;SDS011;58098;51.680;5.134;2023-05-10T03:48:36;98.37;;;31.93;;
70545;SDS011;58098;51.680;5.134;2023-05-10T03:51:01;103.07;;;34.63;;
70545;SDS011;58098;51.680;5.134;2023-05-10T03:53:27;90.27;;;31.93;;
70545;SDS011;58098;51.680;5.134;2023-05-10T03:55:52;97.83;;;33.33;;
70545;SDS011;58098;51.680;5.134;2023-05-10T03:58:18;97.13;;;33.38;;
70545;SDS011;58098;51.680;5.134;2023-05-10T04:00:43;99.20;;;32.27;;
70545;SDS011;58098;51.680;5.134;2023-05-10T04:03:10;101.53;;;33.97;;
70545;SDS011;58098;51.680;5.134;2023-05-10T04:05:38;90.65;;;32.90;;
70545;SDS011;58098;51.680;5.134;2023-05-10T04:08:04;100.10;;;35.53;;
70545;SDS011;58098;51.680;5.134;2023-05-10T04:10:30;102.60;;;37.00;;
70545;SDS011;58098;51.680;5.134;2023-05-10T04:12:56;95.50;;;34.53;;
70545;SDS011;58098;51.680;5.134;2023-05-10T04:15:21;97.23;;;35.00;;
70545;SDS011;58098;51.680;5.134;2023-05-10T04:17:46;89.90;;;35.10;;
70545;SDS011;58098;51.680;5.134;2023-05-10T04:20:12;98.87;;;36.40;;
70545;SDS011;58098;51.680;5.134;2023-05-10T04:22:37;99.27;;;36.03;;
70545;SDS011;58098;51.680;5.134;2023-05-10T04:25:03;94.43;;;35.87;;
70545;SDS011;58098;51.680;5.134;2023-05-10T04:27:29;105.35;;;38.50;;
70545;SDS011;58098;51.680;5.134;2023-05-10T04:29:54;99.60;;;37.07;;
70545;SDS011;58098;51.680;5.134;2023-05-10T04:32:20;100.72;;;36.72;;
70545;SDS011;58098;51.680;5.134;2023-05-10T04:34:45;104.90;;;35.90;;
70545;SDS011;58098;51.680;5.134;2023-05-10T04:37:11;101.73;;;35.97;;
70545;SDS011;58098;51.680;5.134;2023-05-10T04:39:36;102.37;;;37.27;;
70545;SDS011;58098;51.680;5.134;2023-05-10T04:42:02;98.63;;;34.05;;
70545;SDS011;58098;51.680;5.134;2023-05-10T04:44:28;102.00;;;34.23;;
70545;SDS011;58098;51.680;5.134;2023-05-10T04:46:54;97.97;;;35.50;;
70545;SDS011;58098;51.680;5.134;2023-05-10T04:49:19;93.67;;;33.60;;
70545;SDS011;58098;51.680;5.134;2023-05-10T04:51:45;90.20;;;33.88;;
70545;SDS011;58098;51.680;5.134;2023-05-10T04:54:10;90.27;;;33.40;;
70545;SDS011;58098;51.680;5.134;2023-05-10T04:56:36;81.37;;;33.13;;
70545;SDS011;58098;51.680;5.134;2023-05-10T04:59:01;91.93;;;32.73;;
70545;SDS011;58098;51.680;5.134;2023-05-10T05:01:27;83.47;;;31.70;;
70545;SDS011;58098;51.680;5.134;2023-05-10T05:03:52;77.20;;;29.57;;
70545;SDS011;58098;51.680;5.134;2023-05-10T05:06:18;83.30;;;29.93;;
70545;SDS011;58098;51.680;5.134;2023-05-10T05:08:43;83.83;;;31.50;;
70545;SDS011;58098;51.680;5.134;2023-05-10T05:11:08;84.68;;;32.40;;
70545;SDS011;58098;51.680;5.134;2023-05-10T05:13:34;78.03;;;30.27;;
70545;SDS011;58098;51.680;5.134;2023-05-10T05:16:00;86.43;;;29.70;;
70545;SDS011;58098;51.680;5.134;2023-05-10T05:18:27;74.35;;;29.05;;
70545;SDS011;58098;51.680;5.134;2023-05-10T05:20:53;71.63;;;27.57;;
70545;SDS011;58098;51.680;5.134;2023-05-10T05:23:18;75.73;;;28.93;;
70545;SDS011;58098;51.680;5.134;2023-05-10T05:25:45;69.57;;;28.20;;
70545;SDS011;58098;51.680;5.134;2023-05-10T05:28:11;80.10;;;30.87;;
70545;SDS011;58098;51.680;5.134;2023-05-10T05:30:36;72.07;;;27.97;;
70545;SDS011;58098;51.680;5.134;2023-05-10T05:33:01;73.15;;;27.95;;
70545;SDS011;58098;51.680;5.134;2023-05-10T05:35:26;71.70;;;26.57;;
70545;SDS011;58098;51.680;5.134;2023-05-10T05:37:52;69.40;;;27.53;;
70545;SDS011;58098;51.680;5.134;2023-05-10T05:40:17;69.73;;;27.37;;
70545;SDS011;58098;51.680;5.134;2023-05-10T05:42:42;66.80;;;26.13;;
70545;SDS011;58098;51.680;5.134;2023-05-10T05:45:09;64.50;;;27.17;;
70545;SDS011;58098;51.680;5.134;2023-05-10T05:47:37;70.32;;;28.10;;
70545;SDS011;58098;51.680;5.134;2023-05-10T05:50:04;67.67;;;27.70;;
70545;SDS011;58098;51.680;5.134;2023-05-10T05:52:29;74.05;;;28.27;;
70545;SDS011;58098;51.680;5.134;2023-05-10T05:54:55;65.47;;;27.03;;
70545;SDS011;58098;51.680;5.134;2023-05-10T05:57:20;69.60;;;27.23;;
70545;SDS011;58098;51.680;5.134;2023-05-10T05:59:46;70.13;;;28.77;;
70545;SDS011;58098;51.680;5.134;2023-05-10T06:02:11;65.30;;;28.90;;
70545;SDS011;58098;51.680;5.134;2023-05-10T06:04:37;76.10;;;28.80;;
70545;SDS011;58098;51.680;5.134;2023-05-10T06:07:02;67.40;;;28.83;;
70545;SDS011;58098;51.680;5.134;2023-05-10T06:09:27;76.20;;;29.43;;
70545;SDS011;58098;51.680;5.134;2023-05-10T06:11:53;74.60;;;29.03;;
70545;SDS011;58098;51.680;5.134;2023-05-10T06:14:20;69.87;;;28.67;;
70545;SDS011;58098;51.680;5.134;2023-05-10T06:16:45;77.90;;;30.75;;
70545;SDS011;58098;51.680;5.134;2023-05-10T06:19:11;77.80;;;30.57;;
70545;SDS011;58098;51.680;5.134;2023-05-10T06:21:36;77.57;;;31.83;;
70545;SDS011;58098;51.680;5.134;2023-05-10T06:24:01;72.50;;;30.67;;
70545;SDS011;58098;51.680;5.134;2023-05-10T06:26:27;72.90;;;31.50;;
70545;SDS011;58098;51.680;5.134;2023-05-10T06:28:53;79.00;;;32.50;;
70545;SDS011;58098;51.680;5.134;2023-05-10T06:31:18;70.30;;;28.97;;
70545;SDS011;58098;51.680;5.134;2023-05-10T06:33:43;68.80;;;29.35;;
70545;SDS011;58098;51.680;5.134;2023-05-10T06:36:09;64.27;;;26.97;;
70545;SDS011;58098;51.680;5.134;2023-05-10T06:38:34;66.93;;;28.47;;
70545;SDS011;58098;51.680;5.134;2023-05-10T06:40:59;68.50;;;28.77;;
70545;SDS011;58098;51.680;5.134;2023-05-10T06:43:25;60.30;;;25.13;;
70545;SDS011;58098;51.680;5.134;2023-05-10T06:45:51;65.57;;;27.40;;
70545;SDS011;58098;51.680;5.134;2023-05-10T06:48:16;65.60;;;28.20;;
70545;SDS011;58098;51.680;5.134;2023-05-10T06:50:42;63.33;;;27.43;;
70545;SDS011;58098;51.680;5.134;2023-05-10T06:53:07;67.40;;;27.77;;
70545;SDS011;58098;51.680;5.134;2023-05-10T06:55:33;55.57;;;24.20;;
70545;SDS011;58098;51.680;5.134;2023-05-10T06:57:58;57.53;;;24.53;;
70545;SDS011;58098;51.680;5.134;2023-05-10T07:00:23;52.47;;;24.87;;
70545;SDS011;58098;51.680;5.134;2023-05-10T07:02:49;46.40;;;20.02;;
70545;SDS011;58098;51.680;5.134;2023-05-10T07:05:14;39.23;;;18.93;;
70545;SDS011;58098;51.680;5.134;2023-05-10T07:07:40;41.57;;;20.67;;
70545;SDS011;58098;51.680;5.134;2023-05-10T07:10:05;40.15;;;19.17;;
70545;SDS011;58098;51.680;5.134;2023-05-10T07:12:32;39.03;;;19.07;;
70545;SDS011;58098;51.680;5.134;2023-05-10T07:14:57;47.42;;;19.65;;
70545;SDS011;58098;51.680;5.134;2023-05-10T07:17:23;46.43;;;23.03;;
70545;SDS011;58098;51.680;5.134;2023-05-10T07:19:48;38.47;;;20.33;;
70545;SDS011;58098;51.680;5.134;2023-05-10T07:22:14;41.67;;;20.23;;
70545;SDS011;58098;51.680;5.134;2023-05-10T07:24:40;43.28;;;21.40;;
70545;SDS011;58098;51.680;5.134;2023-05-10T07:27:05;40.10;;;20.80;;
70545;SDS011;58098;51.680;5.134;2023-05-10T07:29:31;46.83;;;22.73;;
70545;SDS011;58098;51.680;5.134;2023-05-10T07:31:56;41.93;;;22.10;;
70545;SDS011;58098;51.680;5.134;2023-05-10T07:34:21;44.20;;;21.50;;
70545;SDS011;58098;51.680;5.134;2023-05-10T07:36:47;41.50;;;20.87;;
70545;SDS011;58098;51.680;5.134;2023-05-10T07:39:12;36.90;;;18.70;;
70545;SDS011;58098;51.680;5.134;2023-05-10T07:41:37;32.83;;;17.13;;
70545;SDS011;58098;51.680;5.134;2023-05-10T07:44:03;32.03;;;17.33;;
70545;SDS011;58098;51.680;5.134;2023-05-10T07:46:29;26.77;;;16.30;;
70545;SDS011;58098;51.680;5.134;2023-05-10T07:48:54;23.37;;;15.37;;
70545;SDS011;58098;51.680;5.134;2023-05-10T07:51:20;22.25;;;13.60;;
70545;SDS011;58098;51.680;5.134;2023-05-10T07:53:46;23.07;;;12.83;;
70545;SDS011;58098;51.680;5.134;2023-05-10T07:56:21;18.03;;;11.07;;
70545;SDS011;58098;51.680;5.134;2023-05-10T07:58:47;18.52;;;11.07;;
70545;SDS011;58098;51.680;5.134;2023-05-10T08:01:12;17.83;;;10.53;;
70545;SDS011;58098;51.680;5.134;2023-05-10T08:03:37;15.30;;;9.27;;
70545;SDS011;58098;51.680;5.134;2023-05-10T08:06:03;16.27;;;10.03;;
70545;SDS011;58098;51.680;5.134;2023-05-10T08:08:28;18.10;;;9.00;;
70545;SDS011;58098;51.680;5.134;2023-05-10T08:10:53;14.30;;;8.30;;
70545;SDS011;58098;51.680;5.134;2023-05-10T08:13:19;11.30;;;7.30;;
70545;SDS011;58098;51.680;5.134;2023-05-10T08:15:44;11.70;;;7.27;;
70545;SDS011;58098;51.680;5.134;2023-05-10T08:18:09;15.20;;;7.30;;
70545;SDS011;58098;51.680;5.134;2023-05-10T08:20:35;10.48;;;6.40;;
70545;SDS011;58098;51.680;5.134;2023-05-10T08:23:00;11.37;;;6.43;;
70545;SDS011;58098;51.680;5.134;2023-05-10T08:25:25;8.77;;;6.30;;
70545;SDS011;58098;51.680;5.134;2023-05-10T08:27:51;13.43;;;6.87;;
70545;SDS011;58098;51.680;5.134;2023-05-10T08:30:16;9.73;;;6.73;;
70545;SDS011;58098;51.680;5.134;2023-05-10T08:32:42;11.40;;;7.05;;
70545;SDS011;58098;51.680;5.134;2023-05-10T08:35:07;12.80;;;7.53;;
70545;SDS011;58098;51.680;5.134;2023-05-10T08:37:32;9.23;;;7.43;;
70545;SDS011;58098;51.680;5.134;2023-05-10T08:39:58;11.17;;;7.80;;
70545;SDS011;58098;51.680;5.134;2023-05-10T08:42:23;11.10;;;8.13;;
70545;SDS011;58098;51.680;5.134;2023-05-10T08:44:53;11.43;;;8.43;;
70545;SDS011;58098;51.680;5.134;2023-05-10T08:47:19;11.98;;;8.02;;
70545;SDS011;58098;51.680;5.134;2023-05-10T08:49:45;13.52;;;7.93;;
70545;SDS011;58098;51.680;5.134;2023-05-10T08:52:13;13.20;;;8.80;;
70545;SDS011;58098;51.680;5.134;2023-05-10T08:54:41;14.27;;;7.95;;
70545;SDS011;58098;51.680;5.134;2023-05-10T08:57:07;12.80;;;8.75;;
70545;SDS011;58098;51.680;5.134;2023-05-10T08:59:32;10.70;;;8.70;;
70545;SDS011;58098;51.680;5.134;2023-05-10T09:01:58;13.87;;;9.47;;
70545;SDS011;58098;51.680;5.134;2023-05-10T09:04:24;12.63;;;9.30;;
70545;SDS011;58098;51.680;5.134;2023-05-10T09:06:50;14.13;;;10.40;;
70545;SDS011;58098;51.680;5.134;2023-05-10T09:09:15;16.07;;;10.20;;
70545;SDS011;58098;51.680;5.134;2023-05-10T09:11:42;13.48;;;10.45;;
70545;SDS011;58098;51.680;5.134;2023-05-10T09:14:08;12.93;;;9.73;;
70545;SDS011;58098;51.680;5.134;2023-05-10T09:16:34;11.32;;;9.77;;
70545;SDS011;58098;51.680;5.134;2023-05-10T09:18:59;11.67;;;9.47;;
70545;SDS011;58098;51.680;5.134;2023-05-10T09:21:25;13.77;;;10.00;;
70545;SDS011;58098;51.680;5.134;2023-05-10T09:23:50;13.57;;;10.17;;
70545;SDS011;58098;51.680;5.134;2023-05-10T09:26:21;11.32;;;9.45;;
70545;SDS011;58098;51.680;5.134;2023-05-10T09:31:20;11.00;;;8.32;;
70545;SDS011;58098;51.680;5.134;2023-05-10T09:33:46;13.33;;;9.40;;
70545;SDS011;58098;51.680;5.134;2023-05-10T09:36:13;13.07;;;9.13;;
70545;SDS011;58098;51.680;5.134;2023-05-10T09:38:45;12.45;;;9.43;;
70545;SDS011;58098;51.680;5.134;2023-05-10T09:41:16;13.18;;;9.20;;
70545;SDS011;58098;51.680;5.134;2023-05-10T09:43:45;11.27;;;8.83;;
70545;SDS011;58098;51.680;5.134;2023-05-10T09:46:11;12.90;;;8.82;;
70545;SDS011;58098;51.680;5.134;2023-05-10T09:48:46;12.83;;;7.33;;
70545;SDS011;58098;51.680;5.134;2023-05-10T09:51:22;10.23;;;6.80;;
70545;SDS011;58098;51.680;5.134;2023-05-10T09:53:49;11.30;;;7.63;;
70545;SDS011;58098;51.680;5.134;2023-05-10T09:56:35;13.07;;;7.33;;
70545;SDS011;58098;51.680;5.134;2023-05-10T09:59:02;10.10;;;6.55;;
70545;SDS011;58098;51.680;5.134;2023-05-10T10:01:28;12.77;;;6.63;;
70545;SDS011;58098;51.680;5.134;2023-05-10T10:03:54;10.93;;;6.93;;
70545;SDS011;58098;51.680;5.134;2023-05-10T10:06:19;12.68;;;6.72;;
70545;SDS011;58098;51.680;5.134;2023-05-10T10:08:45;9.17;;;6.57;;
70545;SDS011;58098;51.680;5.134;2023-05-10T10:11:11;10.60;;;7.20;;
70545;SDS011;58098;51.680;5.134;2023-05-10T10:13:36;9.83;;;6.73;;
70545;SDS011;58098;51.680;5.134;2023-05-10T10:16:02;10.90;;;6.40;;
70545;SDS011;58098;51.680;5.134;2023-05-10T10:18:27;11.67;;;6.43;;
70545;SDS011;58098;51.680;5.134;2023-05-10T10:20:54;8.60;;;6.03;;
70545;SDS011;58098;51.680;5.134;2023-05-10T10:23:20;9.30;;;6.10;;
70545;SDS011;58098;51.680;5.134;2023-05-10T10:25:46;8.33;;;6.27;;
70545;SDS011;58098;51.680;5.134;2023-05-10T10:28:24;11.93;;;6.85;;
70545;SDS011;58098;51.680;5.134;2023-05-10T10:30:54;11.52;;;7.38;;
70545;SDS011;58098;51.680;5.134;2023-05-10T10:36:04;11.10;;;7.47;;
70545;SDS011;58098;51.680;5.134;2023-05-10T10:38:37;13.02;;;7.18;;
70545;SDS011;58098;51.680;5.134;2023-05-10T10:47:30;6.97;;;5.25;;
70545;SDS011;58098;51.680;5.134;2023-05-10T10:57:26;6.00;;;4.15;;
70545;SDS011;58098;51.680;5.134;2023-05-10T11:02:44;5.77;;;4.03;;
70545;SDS011;58098;51.680;5.134;2023-05-10T11:08:07;4.95;;;2.90;;
70545;SDS011;58098;51.680;5.134;2023-05-10T11:10:36;6.20;;;3.78;;
70545;SDS011;58098;51.680;5.134;2023-05-10T11:13:05;9.00;;;4.33;;
70545;SDS011;58098;51.680;5.134;2023-05-10T11:15:35;8.25;;;5.35;;
70545;SDS011;58098;51.680;5.134;2023-05-10T11:20:51;4.28;;;3.85;;
70545;SDS011;58098;51.680;5.134;2023-05-10T11:23:17;8.40;;;4.00;;
70545;SDS011;58098;51.680;5.134;2023-05-10T11:25:44;8.00;;;4.07;;
70545;SDS011;58098;51.680;5.134;2023-05-10T11:28:13;5.88;;;4.35;;
70545;SDS011;58098;51.680;5.134;2023-05-10T11:30:40;5.55;;;3.83;;
70545;SDS011;58098;51.680;5.134;2023-05-10T11:33:08;8.38;;;4.93;;
70545;SDS011;58098;51.680;5.134;2023-05-10T11:35:37;6.27;;;4.93;;
70545;SDS011;58098;51.680;5.134;2023-05-10T11:38:09;8.27;;;5.00;;
70545;SDS011;58098;51.680;5.134;2023-05-10T11:40:36;8.07;;;5.00;;
70545;SDS011;58098;51.680;5.134;2023-05-10T11:43:02;6.80;;;5.50;;
70545;SDS011;58098;51.680;5.134;2023-05-10T11:45:29;8.37;;;5.70;;
70545;SDS011;58098;51.680;5.134;2023-05-10T11:47:57;8.18;;;5.70;;
70545;SDS011;58098;51.680;5.134;2023-05-10T11:50:23;9.07;;;5.78;;
70545;SDS011;58098;51.680;5.134;2023-05-10T11:52:52;9.25;;;5.70;;
70545;SDS011;58098;51.680;5.134;2023-05-10T11:55:18;11.13;;;6.45;;
70545;SDS011;58098;51.680;5.134;2023-05-10T11:57:44;8.07;;;6.10;;
70545;SDS011;58098;51.680;5.134;2023-05-10T12:00:11;9.32;;;5.82;;
70545;SDS011;58098;51.680;5.134;2023-05-10T12:02:37;8.48;;;5.65;;
70545;SDS011;58098;51.680;5.134;2023-05-10T12:05:03;9.15;;;6.07;;
70545;SDS011;58098;51.680;5.134;2023-05-10T12:07:30;9.33;;;5.80;;
70545;SDS011;58098;51.680;5.134;2023-05-10T12:10:29;8.18;;;6.00;;
70545;SDS011;58098;51.680;5.134;2023-05-10T12:12:51;6.67;;;5.20;;
70545;SDS011;58098;51.680;5.134;2023-05-10T12:15:18;7.68;;;5.85;;
70545;SDS011;58098;51.680;5.134;2023-05-10T12:17:45;8.38;;;6.65;;
70545;SDS011;58098;51.680;5.134;2023-05-10T12:20:20;8.88;;;6.63;;
70545;SDS011;58098;51.680;5.134;2023-05-10T12:25:15;6.37;;;5.50;;
70545;SDS011;58098;51.680;5.134;2023-05-10T12:27:40;8.13;;;5.78;;
70545;SDS011;58098;51.680;5.134;2023-05-10T12:30:06;8.93;;;5.80;;
70545;SDS011;58098;51.680;5.134;2023-05-10T12:32:41;8.65;;;5.40;;
70545;SDS011;58098;51.680;5.134;2023-05-10T12:35:09;8.35;;;5.03;;
70545;SDS011;58098;51.680;5.134;2023-05-10T12:37:35;7.47;;;4.80;;
70545;SDS011;58098;51.680;5.134;2023-05-10T12:40:05;9.48;;;5.32;;
70545;SDS011;58098;51.680;5.134;2023-05-10T12:42:31;7.45;;;5.18;;
70545;SDS011;58098;51.680;5.134;2023-05-10T12:44:57;7.17;;;6.20;;
70545;SDS011;58098;51.680;5.134;2023-05-10T12:47:22;8.57;;;5.75;;
70545;SDS011;58098;51.680;5.134;2023-05-10T12:49:47;11.97;;;6.67;;
70545;SDS011;58098;51.680;5.134;2023-05-10T12:52:13;9.93;;;6.80;;
70545;SDS011;58098;51.680;5.134;2023-05-10T12:54:38;14.30;;;7.70;;
70545;SDS011;58098;51.680;5.134;2023-05-10T12:57:03;12.60;;;7.97;;
70545;SDS011;58098;51.680;5.134;2023-05-10T12:59:29;13.27;;;7.77;;
70545;SDS011;58098;51.680;5.134;2023-05-10T13:01:54;13.97;;;9.00;;
70545;SDS011;58098;51.680;5.134;2023-05-10T13:04:19;11.20;;;7.30;;
70545;SDS011;58098;51.680;5.134;2023-05-10T13:06:45;10.80;;;7.27;;
70545;SDS011;58098;51.680;5.134;2023-05-10T13:09:10;10.37;;;6.43;;
70545;SDS011;58098;51.680;5.134;2023-05-10T13:11:36;8.33;;;6.30;;
70545;SDS011;58098;51.680;5.134;2023-05-10T13:14:01;10.27;;;5.90;;
70545;SDS011;58098;51.680;5.134;2023-05-10T13:16:28;7.20;;;4.53;;
70545;SDS011;58098;51.680;5.134;2023-05-10T13:18:53;8.27;;;4.70;;
70545;SDS011;58098;51.680;5.134;2023-05-10T13:21:18;8.23;;;4.87;;
70545;SDS011;58098;51.680;5.134;2023-05-10T13:23:44;8.63;;;4.03;;
70545;SDS011;58098;51.680;5.134;2023-05-10T13:26:09;8.17;;;4.30;;
70545;SDS011;58098;51.680;5.134;2023-05-10T13:28:34;7.73;;;4.37;;
70545;SDS011;58098;51.680;5.134;2023-05-10T13:31:00;10.03;;;4.30;;
70545;SDS011;58098;51.680;5.134;2023-05-10T13:33:25;8.60;;;4.67;;
70545;SDS011;58098;51.680;5.134;2023-05-10T13:35:50;9.63;;;5.10;;
70545;SDS011;58098;51.680;5.134;2023-05-10T13:38:16;9.20;;;5.40;;
70545;SDS011;58098;51.680;5.134;2023-05-10T13:40:41;7.93;;;4.90;;
70545;SDS011;58098;51.680;5.134;2023-05-10T13:43:06;9.00;;;4.53;;
70545;SDS011;58098;51.680;5.134;2023-05-10T13:45:31;8.13;;;5.10;;
70545;SDS011;58098;51.680;5.134;2023-05-10T13:47:57;8.87;;;4.80;;
70545;SDS011;58098;51.680;5.134;2023-05-10T13:50:22;10.63;;;5.60;;
70545;SDS011;58098;51.680;5.134;2023-05-10T13:52:48;8.37;;;5.77;;
70545;SDS011;58098;51.680;5.134;2023-05-10T13:55:13;9.23;;;5.87;;
70545;SDS011;58098;51.680;5.134;2023-05-10T13:57:38;9.60;;;6.33;;
70545;SDS011;58098;51.680;5.134;2023-05-10T14:00:04;7.30;;;5.60;;
70545;SDS011;58098;51.680;5.134;2023-05-10T14:02:30;5.77;;;4.60;;
70545;SDS011;58098;51.680;5.134;2023-05-10T14:04:55;8.88;;;5.10;;
70545;SDS011;58098;51.680;5.134;2023-05-10T14:07:20;6.87;;;4.77;;
70545;SDS011;58098;51.680;5.134;2023-05-10T14:09:46;7.60;;;4.73;;
70545;SDS011;58098;51.680;5.134;2023-05-10T14:12:12;6.97;;;5.10;;
70545;SDS011;58098;51.680;5.134;2023-05-10T14:14:37;6.65;;;4.30;;
70545;SDS011;58098;51.680;5.134;2023-05-10T14:17:02;8.10;;;4.70;;
70545;SDS011;58098;51.680;5.134;2023-05-10T14:19:27;6.40;;;4.50;;
70545;SDS011;58098;51.680;5.134;2023-05-10T14:21:55;10.68;;;5.28;;
70545;SDS011;58098;51.680;5.134;2023-05-10T14:24:20;6.13;;;4.03;;
70545;SDS011;58098;51.680;5.134;2023-05-10T14:26:46;6.10;;;3.10;;
70545;SDS011;58098;51.680;5.134;2023-05-10T14:29:11;5.83;;;2.80;;
70545;SDS011;58098;51.680;5.134;2023-05-10T14:31:36;6.40;;;3.07;;
70545;SDS011;58098;51.680;5.134;2023-05-10T14:34:02;5.97;;;2.57;;
70545;SDS011;58098;51.680;5.134;2023-05-10T14:36:27;5.32;;;2.60;;
70545;SDS011;58098;51.680;5.134;2023-05-10T14:38:54;2.97;;;2.60;;
70545;SDS011;58098;51.680;5.134;2023-05-10T14:41:19;6.03;;;2.43;;
70545;SDS011;58098;51.680;5.134;2023-05-10T14:43:44;4.83;;;2.53;;
70545;SDS011;58098;51.680;5.134;2023-05-10T14:46:10;4.50;;;2.53;;
70545;SDS011;58098;51.680;5.134;2023-05-10T14:48:35;6.80;;;2.47;;
70545;SDS011;58098;51.680;5.134;2023-05-10T14:51:00;3.53;;;2.27;;
70545;SDS011;58098;51.680;5.134;2023-05-10T14:53:27;3.80;;;2.00;;
70545;SDS011;58098;51.680;5.134;2023-05-10T14:55:52;5.43;;;2.30;;
70545;SDS011;58098;51.680;5.134;2023-05-10T14:58:17;5.70;;;2.20;;
70545;SDS011;58098;51.680;5.134;2023-05-10T15:00:43;4.63;;;2.30;;
70545;SDS011;58098;51.680;5.134;2023-05-10T15:03:08;3.67;;;2.40;;
70545;SDS011;58098;51.680;5.134;2023-05-10T15:05:34;7.57;;;2.80;;
70545;SDS011;58098;51.680;5.134;2023-05-10T15:07:59;6.40;;;2.80;;
70545;SDS011;58098;51.680;5.134;2023-05-10T15:10:24;6.10;;;3.10;;
70545;SDS011;58098;51.680;5.134;2023-05-10T15:12:50;5.93;;;3.40;;